Aérodrome :
LOGIN :

S'inscrire | Disclaimer

   EN    FR    IT 

 










Légende :    VFR   VFR Marginal   IFR   IFR Intensif   IFR Très Intensif
Visi : 
Plafond : 
>= 8 km
>= 3000ft
5 à 8 km
1000 à 3000 ft
1500m à 5 km
500 à 1000 ft
800 à 1500m
200 à 500 ft
< 800m
< 200 ft
Symboles :   Orages  Brouillard  Fortes neiges  Fortes précipitations  Vent > 20 kt
SIGMETs :   Divers  Orages  Givrage  Turbulence  Onde Orograph.  Cendres Volcan.






- Altitude de l'aérodrome : -15 ft
- Code IATA : RTM


EHRD - Rotterdam Zestienhoven

DERNIER METAR :
  • 091025Z AUTO 28012KT 240V330 9999 FEW019 SCT041 09/06 Q0997 TEMPO 7000

METARs EXPIRÉS :
  • 090955Z AUTO 28011KT 250V320 9999 -DZ BKN016 BKN029 OVC039 08/06 Q0997 NOSIG
  • 090925Z AUTO 29009KT 260V330 9999 FEW015CB SCT035 BKN040 07/05 Q0996 NOSIG
  • 090855Z AUTO 29009KT 250V330 9999 -RA FEW015CB BKN031 BKN037 07/06 Q0995 RERA REDZ NOSIG
  • 090825Z AUTO 29007KT 250V320 9999 FEW017 SCT042 BKN046 07/06 Q0994 REDZ TEMPO 7000
  • 090755Z AUTO 29009KT 250V330 9999 -UP FEW017 BKN040 BKN045 07/06 Q0994 NOSIG

TAF TAF EHRD
Valide du 09 à 06h jusqu'au 10 à 12h UTC


090508Z 0906/1012 19009KT 9999 SCT025
BECMG 0906/0908 30011KT
TEMPO 0906/0907 6000 SHRA RA BKN015 SCT022CB
PROB30
TEMPO 0907/0912 32016G26KT 6000 SHRA SCT022CB BKN030
BECMG 0911/0914 34021G32KT
TEMPO 0912/0914 35025G37KT 6000 SHRA RA SCT022CB BKN030
BECMG 0916/0919 33016G26KT
BECMG 0920/0923 32011KT
BECMG 1003/1006 22006KT
BECMG 1009/1012 19015KT



MET'MAP, la Météo Aéronautique d'un coup d'oeil ! - Copyright ORBIFLY Décembre 2007 - Disclaimer

ORBIFLY MET'MAP TEAM :

Programmation & Développement : Alexandra Zaïnal
Sur une idée originale de : Baudouin d'Aumeries
Assistance à la programmation : Marc-Olivier Méhu
Soutien technique & logistique : Manuel Goepfert

Contact : metmap@orbifly.com




SOURCES & CREDITS :

   NOAA